createdAt,value
2022-08-09T00:01:52.832Z,101602.81
2022-08-09T00:05:03.698Z,101603.88
2022-08-09T00:08:32.576Z,101607.09
2022-08-09T00:12:02.839Z,101598.09
2022-08-09T00:15:00.442Z,101591.88
2022-08-09T00:18:11.114Z,101580.22
2022-08-09T00:21:14.317Z,101579.34
2022-08-09T00:24:17.081Z,101592.81
2022-08-09T00:27:22.531Z,101585.97
2022-08-09T00:30:27.064Z,101585.88
2022-08-09T00:33:48.873Z,101583.50
2022-08-09T00:36:52.382Z,101595.78
2022-08-09T00:40:13.159Z,101596.41
2022-08-09T00:44:26.866Z,101591.25
2022-08-09T00:46:56.508Z,101589.91
2022-08-09T00:50:06.704Z,101578.75
2022-08-09T00:53:17.943Z,101582.53
2022-08-09T00:56:27.004Z,101574.91
2022-08-09T00:59:29.517Z,101575.28
2022-08-09T01:02:49.874Z,101573.06
2022-08-09T01:05:58.379Z,101574.38
2022-08-09T01:09:18.365Z,101576.94
2022-08-09T01:12:30.387Z,101581.22
2022-08-09T01:15:40.951Z,101577.63
2022-08-09T01:19:04.379Z,101576.84
2022-08-09T01:22:24.518Z,101572.34
2022-08-09T01:25:48.803Z,101576.22
2022-08-09T01:28:57.328Z,101582.69
2022-08-09T01:32:30.715Z,101573.66
2022-08-09T01:35:38.564Z,101583.31
2022-08-09T01:38:46.322Z,101587.41
2022-08-09T01:41:53.425Z,101586.56
2022-08-09T01:45:01.508Z,101589.63
2022-08-09T01:48:05.969Z,101597.00
2022-08-09T01:51:10.546Z,101592.69
2022-08-09T01:54:15.377Z,101585.81
2022-08-09T01:57:20.521Z,101594.53
2022-08-09T02:00:35.663Z,101589.47
2022-08-09T02:03:42.932Z,101591.19
2022-08-09T02:07:04.258Z,101602.44
2022-08-09T02:10:10.284Z,101596.59
2022-08-09T02:13:15.347Z,101596.81
2022-08-09T02:16:19.609Z,101596.59
2022-08-09T02:19:39.192Z,101593.38
2022-08-09T02:22:52.382Z,101596.72
2022-08-09T02:25:59.306Z,101598.63
2022-08-09T02:29:09.797Z,101589.94
2022-08-09T02:32:17.384Z,101600.81
2022-08-09T02:36:01.356Z,101595.94
2022-08-09T02:38:51.968Z,101591.09
2022-08-09T02:41:59.650Z,101593.56
2022-08-09T02:45:08.235Z,101598.63
2022-08-09T02:48:30.686Z,101600.44
2022-08-09T02:51:40.542Z,101602.16
2022-08-09T02:54:54.144Z,101604.72
2022-08-09T02:57:59.971Z,101599.88
2022-08-09T03:01:29.496Z,101607.78
2022-08-09T03:04:50.822Z,101603.78
2022-08-09T03:07:55.609Z,101611.59
2022-08-09T03:11:00.231Z,101607.41
2022-08-09T03:14:03.477Z,101605.09
2022-08-09T03:17:07.371Z,101617.50
2022-08-09T03:20:21.343Z,101616.66
2022-08-09T03:23:26.098Z,101610.06
2022-08-09T03:26:31.844Z,101610.06
2022-08-09T03:29:43.249Z,101612.84
2022-08-09T03:33:00.261Z,101616.84
2022-08-09T03:36:12.975Z,101622.47
2022-08-09T03:39:16.845Z,101620.91
2022-08-09T03:42:19.430Z,101619.31
2022-08-09T03:46:04.813Z,101627.31
2022-08-09T03:48:55.929Z,101636.19
2022-08-09T03:52:03.673Z,101629.50
2022-08-09T03:55:10.567Z,101627.44
2022-08-09T03:58:21.256Z,101626.38
2022-08-09T04:01:25.091Z,101628.09
2022-08-09T04:04:38.842Z,101631.94
2022-08-09T04:07:52.934Z,101632.22
2022-08-09T04:11:01.632Z,101634.94
2022-08-09T04:14:53.033Z,101637.28
2022-08-09T04:17:27.111Z,101646.31
2022-08-09T04:20:32.675Z,101635.75
2022-08-09T04:23:36.586Z,101644.13
2022-08-09T04:26:39.060Z,101646.50
2022-08-09T04:29:50.004Z,101651.75
2022-08-09T04:32:54.512Z,101654.34
2022-08-09T04:35:57.073Z,101656.81
2022-08-09T04:39:03.980Z,101658.53
2022-08-09T04:42:09.340Z,101657.56
2022-08-09T04:45:12.834Z,101665.31
2022-08-09T04:48:15.594Z,101672.94
2022-08-09T04:51:18.087Z,101676.66
2022-08-09T04:54:24.060Z,101681.72
2022-08-09T04:57:27.083Z,101681.44
2022-08-09T05:00:49.586Z,101682.75
2022-08-09T05:03:56.787Z,101693.25
2022-08-09T05:07:01.180Z,101685.56
2022-08-09T05:10:05.634Z,101683.78
2022-08-09T05:13:08.275Z,101690.16
2022-08-09T05:16:14.917Z,101695.03
2022-08-09T05:19:24.495Z,101692.59
2022-08-09T05:22:35.679Z,101699.09
2022-08-09T05:25:40.552Z,101694.50
2022-08-09T05:28:44.203Z,101690.09
2022-08-09T05:31:56.152Z,101695.81
2022-08-09T05:35:00.233Z,101701.56
2022-08-09T05:38:02.711Z,101707.06
2022-08-09T05:41:06.891Z,101706.88
2022-08-09T05:44:16.105Z,101712.66
2022-08-09T05:47:27.137Z,101715.75
2022-08-09T05:50:36.052Z,101714.63
2022-08-09T05:53:56.419Z,101722.00
2022-08-09T06:00:10.063Z,101724.72
2022-08-09T06:03:19.617Z,101711.25
2022-08-09T06:06:22.799Z,101722.97
2022-08-09T06:10:02.488Z,101722.78
2022-08-09T06:12:50.494Z,101726.84
2022-08-09T06:16:06.237Z,101731.00
2022-08-09T06:19:08.703Z,101729.94
2022-08-09T06:22:15.266Z,101738.44
2022-08-09T06:25:18.141Z,101737.28
2022-08-09T06:28:31.877Z,101745.31
2022-08-09T06:31:40.285Z,101754.31
2022-08-09T06:34:57.346Z,101750.25
2022-08-09T06:38:05.819Z,101756.56
2022-08-09T06:41:18.723Z,101760.13
2022-08-09T06:44:23.121Z,101757.53
2022-08-09T06:47:39.424Z,101761.72
2022-08-09T06:50:42.850Z,101757.81
2022-08-09T06:53:45.874Z,101756.59
2022-08-09T06:56:52.436Z,101755.53
2022-08-09T07:00:49.542Z,101758.22
2022-08-09T07:03:18.787Z,101762.19
2022-08-09T07:06:21.326Z,101769.16
2022-08-09T07:09:57.181Z,101775.88
2022-08-09T07:12:57.407Z,101766.09
2022-08-09T07:16:41.867Z,101776.16
2022-08-09T07:19:24.383Z,101776.06
2022-08-09T07:22:42.242Z,101786.00
2022-08-09T07:25:52.515Z,101779.13
2022-08-09T07:29:12.186Z,101784.16
2022-08-09T07:32:17.257Z,101787.63
2022-08-09T07:35:19.865Z,101793.44
2022-08-09T07:38:23.420Z,101786.41
2022-08-09T07:41:27.044Z,101795.16
2022-08-09T07:44:51.788Z,101798.31
2022-08-09T07:48:01.378Z,101789.13
2022-08-09T07:52:03.793Z,101784.59
2022-08-09T07:54:31.592Z,101793.66
2022-08-09T07:57:36.136Z,101797.09
2022-08-09T08:00:56.036Z,101802.31
2022-08-09T08:04:03.342Z,101795.91
2022-08-09T08:07:27.116Z,101793.56
2022-08-09T08:10:28.765Z,101785.00
2022-08-09T08:13:42.656Z,101787.97
2022-08-09T08:17:07.773Z,101795.50
2022-08-09T08:20:13.727Z,101780.47
2022-08-09T08:23:17.799Z,101789.84
2022-08-09T08:26:26.402Z,101790.88
2022-08-09T08:29:48.594Z,101796.69
2022-08-09T08:32:54.257Z,101800.94
2022-08-09T08:36:03.560Z,101807.03
2022-08-09T08:39:08.601Z,101800.16
2022-08-09T08:42:13.446Z,101800.88
2022-08-09T08:45:18.618Z,101793.47
2022-08-09T08:48:51.526Z,101797.53
2022-08-09T08:52:00.307Z,101805.06
2022-08-09T08:55:05.879Z,101805.31
2022-08-09T08:58:10.776Z,101805.31
2022-08-09T09:01:24.585Z,101796.19
2022-08-09T09:04:31.363Z,101795.19
2022-08-09T09:07:44.950Z,101798.41
2022-08-09T09:10:48.248Z,101804.66
2022-08-09T09:13:58.458Z,101800.56
2022-08-09T09:17:02.742Z,101810.81
2022-08-09T09:20:09.650Z,101810.97
2022-08-09T09:23:21.499Z,101811.63
2022-08-09T09:26:43.581Z,101816.44
2022-08-09T09:33:16.668Z,101807.38
2022-08-09T09:36:22.002Z,101809.75
2022-08-09T09:39:50.428Z,101796.31
2022-08-09T09:42:56.849Z,101798.72
2022-08-09T09:49:49.922Z,101811.69
2022-08-09T09:52:53.397Z,101812.88
2022-08-09T09:56:04.178Z,101809.53
2022-08-09T09:59:09.470Z,101806.41
2022-08-09T10:02:12.434Z,101810.56
2022-08-09T10:05:15.020Z,101803.34
2022-08-09T10:08:29.311Z,101807.28
2022-08-09T10:11:59.862Z,101805.47
2022-08-09T10:15:07.535Z,101801.66
2022-08-09T10:18:19.973Z,101786.53
2022-08-09T10:21:24.968Z,101783.53
2022-08-09T10:24:35.834Z,101780.66
2022-08-09T10:27:45.409Z,101774.53
2022-08-09T10:34:33.571Z,101782.50
2022-08-09T10:37:39.033Z,101784.56
2022-08-09T10:40:44.751Z,101785.94
2022-08-09T10:43:53.915Z,101779.16
2022-08-09T10:48:19.229Z,101760.16
2022-08-09T10:51:06.641Z,101763.97
2022-08-09T10:54:12.467Z,101749.59
2022-08-09T10:57:15.743Z,101742.75
2022-08-09T11:00:41.812Z,101752.56
2022-08-09T11:04:31.369Z,101756.59
2022-08-09T11:07:57.749Z,101753.00
2022-08-09T11:11:00.550Z,101754.25
2022-08-09T11:14:31.842Z,101747.81
2022-08-09T11:18:03.766Z,101754.91
2022-08-09T11:21:06.641Z,101753.31
2022-08-09T11:24:10.558Z,101752.97
2022-08-09T11:28:04.430Z,101751.28
2022-08-09T11:30:52.780Z,101746.66
2022-08-09T11:34:04.225Z,101738.16
2022-08-09T11:37:18.400Z,101747.28
2022-08-09T11:40:29.901Z,101744.47
2022-08-09T11:43:41.457Z,101740.97
2022-08-09T11:46:54.918Z,101744.16
2022-08-09T11:50:55.534Z,101739.69
2022-08-09T11:53:58.533Z,101756.28
2022-08-09T11:56:51.273Z,101753.75
2022-08-09T11:59:53.856Z,101754.78
2022-08-09T12:02:57.893Z,101760.31
2022-08-09T12:06:10.346Z,101749.56
2022-08-09T12:09:19.230Z,101752.38
2022-08-09T12:12:29.230Z,101732.69
2022-08-09T12:15:50.268Z,101737.88
2022-08-09T12:18:55.771Z,101728.03
2022-08-09T12:22:03.857Z,101738.75
2022-08-09T12:25:15.221Z,101731.56
2022-08-09T12:29:15.031Z,101722.00
2022-08-09T12:32:01.763Z,101716.81
2022-08-09T12:35:12.597Z,101715.56
2022-08-09T12:38:37.320Z,101722.25
2022-08-09T12:41:41.335Z,101724.00
2022-08-09T12:44:52.258Z,101721.66
2022-08-09T12:47:57.091Z,101719.53
2022-08-09T12:51:00.515Z,101728.88
2022-08-09T12:54:08.684Z,101723.09
2022-08-09T12:57:11.195Z,101719.41
2022-08-09T13:00:17.588Z,101724.63
2022-08-09T13:03:58.390Z,101709.00
2022-08-09T13:06:51.451Z,101707.69
2022-08-09T13:10:04.629Z,101711.03
2022-08-09T13:13:10.104Z,101704.81
2022-08-09T13:16:17.512Z,101697.66
2022-08-09T13:20:07.801Z,101700.00
2022-08-09T13:23:05.449Z,101687.50
2022-08-09T13:26:38.549Z,101679.44
2022-08-09T13:30:03.544Z,101678.53
2022-08-09T13:33:07.015Z,101685.56
2022-08-09T13:36:39.457Z,101694.00
2022-08-09T13:41:45.664Z,101695.53
2022-08-09T13:43:03.446Z,101704.53
2022-08-09T13:47:17.928Z,101702.91
2022-08-09T13:49:37.445Z,101708.31
2022-08-09T13:52:41.817Z,101702.97
2022-08-09T13:55:44.880Z,101703.09
2022-08-09T13:58:53.212Z,101700.88
2022-08-09T14:02:02.228Z,101692.75
2022-08-09T14:05:05.466Z,101690.13
2022-08-09T14:08:08.055Z,101688.66
2022-08-09T14:11:16.200Z,101692.00
2022-08-09T14:14:26.052Z,101695.25
2022-08-09T14:17:32.622Z,101693.78
2022-08-09T14:20:52.821Z,101696.25
2022-08-09T14:23:57.310Z,101693.41
2022-08-09T14:27:01.250Z,101688.25
2022-08-09T14:30:36.360Z,101690.63
2022-08-09T14:33:29.495Z,101689.03
2022-08-09T14:36:39.853Z,101687.66
2022-08-09T14:39:48.368Z,101681.75
2022-08-09T14:42:51.355Z,101685.00
2022-08-09T14:47:00.905Z,101675.94
2022-08-09T14:49:18.448Z,101676.56
2022-08-09T14:52:26.122Z,101682.50
2022-08-09T14:55:32.224Z,101683.47
2022-08-09T14:58:37.841Z,101683.47
2022-08-09T15:01:47.951Z,101685.09
2022-08-09T15:04:51.930Z,101684.59
2022-08-09T15:07:56.887Z,101688.31
2022-08-09T15:11:04.854Z,101691.47
2022-08-09T15:14:13.248Z,101685.34
2022-08-09T15:17:17.944Z,101698.00
2022-08-09T15:21:55.133Z,101690.72
2022-08-09T15:24:02.788Z,101701.28
2022-08-09T15:27:06.643Z,101694.47
2022-08-09T15:30:58.948Z,101686.06
2022-08-09T15:34:15.394Z,101679.91
2022-08-09T15:37:01.151Z,101678.94
2022-08-09T15:40:11.663Z,101673.56
2022-08-09T15:43:14.758Z,101669.16
2022-08-09T15:46:33.666Z,101675.13
2022-08-09T15:49:38.720Z,101676.88
2022-08-09T15:53:05.995Z,101672.84
2022-08-09T15:56:21.491Z,101672.66
2022-08-09T15:59:37.100Z,101668.13
2022-08-09T16:02:40.182Z,101669.22
2022-08-09T16:05:53.118Z,101662.09
2022-08-09T16:09:00.879Z,101661.66
2022-08-09T16:12:04.188Z,101658.66
2022-08-09T16:16:10.399Z,101664.91
2022-08-09T16:18:31.268Z,101662.00
2022-08-09T16:21:36.752Z,101660.75
2022-08-09T16:24:39.292Z,101657.94
2022-08-09T16:27:51.393Z,101662.13
2022-08-09T16:30:59.216Z,101659.28
2022-08-09T16:34:02.495Z,101651.75
2022-08-09T16:37:08.283Z,101649.59
2022-08-09T16:40:29.463Z,101658.34
2022-08-09T16:43:40.458Z,101655.28
2022-08-09T16:46:55.547Z,101651.72
2022-08-09T16:50:31.321Z,101659.69
2022-08-09T16:53:34.258Z,101655.13
2022-08-09T16:56:37.239Z,101659.91
2022-08-09T16:59:57.543Z,101655.78
2022-08-09T17:03:00.668Z,101661.72
2022-08-09T17:06:29.254Z,101664.25
2022-08-09T17:09:45.003Z,101662.69
2022-08-09T17:12:49.579Z,101666.09
2022-08-09T17:15:59.916Z,101671.09
2022-08-09T17:19:05.255Z,101671.28
2022-08-09T17:22:08.125Z,101673.09
2022-08-09T17:25:13.494Z,101665.00
2022-08-09T17:28:16.153Z,101674.09
2022-08-09T17:31:20.693Z,101673.22
2022-08-09T17:35:04.379Z,101665.84
2022-08-09T17:38:11.634Z,101678.19
2022-08-09T17:41:11.908Z,101680.31
2022-08-09T17:44:38.595Z,101688.13
2022-08-09T17:47:49.509Z,101686.13
2022-08-09T17:51:08.705Z,101696.47
2022-08-09T17:54:12.417Z,101694.47
2022-08-09T17:58:02.516Z,101698.19
2022-08-09T18:00:46.574Z,101696.09
2022-08-09T18:03:50.741Z,101696.78
2022-08-09T18:06:54.870Z,101696.34
2022-08-09T18:10:04.373Z,101698.91
2022-08-09T18:13:53.677Z,101701.34
2022-08-09T18:16:31.989Z,101705.09
2022-08-09T18:20:57.955Z,101709.91
2022-08-09T18:23:04.629Z,101708.75
2022-08-09T18:26:08.524Z,101702.88
2022-08-09T18:30:39.252Z,101715.03
2022-08-09T18:32:35.568Z,101711.75
2022-08-09T18:35:59.556Z,101713.59
2022-08-09T18:39:03.283Z,101709.41
2022-08-09T18:42:08.121Z,101708.41
2022-08-09T18:45:21.563Z,101711.81
2022-08-09T18:48:35.931Z,101708.00
2022-08-09T18:51:57.832Z,101726.38
2022-08-09T18:55:00.839Z,101718.16
2022-08-09T18:58:03.345Z,101726.78
2022-08-09T19:01:07.645Z,101719.34
2022-08-09T19:04:10.534Z,101722.84
2022-08-09T19:07:13.175Z,101726.44
2022-08-09T19:10:19.224Z,101739.22
2022-08-09T19:13:49.546Z,101737.06
2022-08-09T19:16:50.226Z,101737.22
2022-08-09T19:20:00.725Z,101734.56
2022-08-09T19:23:05.491Z,101739.75
2022-08-09T19:26:09.244Z,101742.19
2022-08-09T19:29:18.110Z,101753.69
2022-08-09T19:32:26.629Z,101747.03
2022-08-09T19:35:57.388Z,101749.41
2022-08-09T19:38:54.941Z,101754.31
2022-08-09T19:41:58.448Z,101749.91
2022-08-09T19:45:01.164Z,101752.47
2022-08-09T19:48:05.610Z,101746.88
2022-08-09T19:51:11.950Z,101753.41
2022-08-09T19:54:16.567Z,101752.16
2022-08-09T19:57:19.067Z,101755.25
2022-08-09T20:00:28.496Z,101748.69
2022-08-09T20:04:16.766Z,101746.63
2022-08-09T20:06:54.897Z,101749.44
2022-08-09T20:09:57.569Z,101752.88
2022-08-09T20:13:00.234Z,101753.34
2022-08-09T20:16:34.004Z,101745.94
2022-08-09T20:19:49.582Z,101742.59
2022-08-09T20:22:49.395Z,101748.50
2022-08-09T20:25:53.455Z,101747.59
2022-08-09T20:28:56.386Z,101751.53
2022-08-09T20:32:29.262Z,101755.88
2022-08-09T20:35:25.256Z,101759.22
2022-08-09T20:38:49.191Z,101758.50
2022-08-09T20:41:50.277Z,101760.09
2022-08-09T20:45:21.423Z,101761.31
2022-08-09T20:48:20.943Z,101756.75
2022-08-09T20:51:26.627Z,101760.09
2022-08-09T20:54:31.199Z,101762.50
2022-08-09T20:57:34.532Z,101760.50
2022-08-09T21:01:02.256Z,101759.19
2022-08-09T21:05:53.877Z,101763.03
2022-08-09T21:07:44.891Z,101763.28
2022-08-09T21:10:53.359Z,101765.88
2022-08-09T21:13:59.535Z,101774.06
2022-08-09T21:18:22.018Z,101765.38
2022-08-09T21:20:26.390Z,101768.03
2022-08-09T21:23:47.989Z,101775.34
2022-08-09T21:26:53.652Z,101777.84
2022-08-09T21:29:57.339Z,101778.16
2022-08-09T21:32:59.812Z,101777.22
2022-08-09T21:36:02.455Z,101782.19
2022-08-09T21:39:08.329Z,101778.63
2022-08-09T21:42:11.369Z,101776.41
2022-08-09T21:45:17.336Z,101764.41
2022-08-09T21:48:20.047Z,101785.31
2022-08-09T21:51:24.565Z,101786.69
2022-08-09T21:54:40.363Z,101781.25
2022-08-09T21:57:59.097Z,101773.75
2022-08-09T22:01:02.742Z,101768.09
2022-08-09T22:04:05.434Z,101766.53
2022-08-09T22:07:08.426Z,101773.13
2022-08-09T22:10:13.866Z,101767.00
2022-08-09T22:13:33.967Z,101781.84
2022-08-09T22:16:37.576Z,101775.81
2022-08-09T22:19:59.045Z,101772.16
2022-08-09T22:23:04.944Z,101771.91
2022-08-09T22:26:34.417Z,101777.88
2022-08-09T22:29:48.494Z,101770.50
2022-08-09T22:32:52.845Z,101768.47
2022-08-09T22:35:59.867Z,101775.44
2022-08-09T22:39:05.561Z,101778.19
2022-08-09T22:42:21.292Z,101783.63
2022-08-09T22:48:16.874Z,101774.53
2022-08-09T22:48:50.381Z,101776.22
2022-08-09T22:51:56.891Z,101780.47
2022-08-09T22:55:00.072Z,101775.16
2022-08-09T22:58:04.918Z,101770.53
2022-08-09T23:01:07.753Z,101767.97
2022-08-09T23:04:10.306Z,101777.34
2022-08-09T23:07:31.124Z,101766.16
2022-08-09T23:10:52.955Z,101766.75
2022-08-09T23:13:56.765Z,101769.25
2022-08-09T23:16:59.397Z,101763.94
2022-08-09T23:20:06.700Z,101759.78
2022-08-09T23:23:10.081Z,101762.63
2022-08-09T23:26:12.577Z,101764.59
2022-08-09T23:29:16.393Z,101773.16
2022-08-09T23:32:18.874Z,101766.81
2022-08-09T23:35:21.377Z,101782.00
2022-08-09T23:38:23.911Z,101774.59
2022-08-09T23:41:28.852Z,101770.59
2022-08-09T23:44:33.450Z,101775.03
2022-08-09T23:47:36.020Z,101782.47
2022-08-09T23:50:38.561Z,101792.13
2022-08-09T23:53:41.048Z,101776.03
2022-08-09T23:56:54.506Z,101781.53
